createdAt,value
2018-11-13T00:00:39.293Z,11.90
2018-11-13T00:03:07.610Z,12.00
2018-11-13T00:05:35.816Z,12.40
2018-11-13T00:08:04.270Z,12.40
2018-11-13T00:10:32.544Z,12.40
2018-11-13T00:13:00.871Z,12.30
2018-11-13T00:15:29.149Z,12.00
2018-11-13T00:17:57.412Z,12.10
2018-11-13T00:20:26.321Z,12.00
2018-11-13T00:22:54.577Z,11.70
2018-11-13T00:25:22.828Z,12.00
2018-11-13T00:27:51.071Z,12.00
2018-11-13T00:30:20.311Z,11.80
2018-11-13T00:32:48.637Z,12.00
2018-11-13T00:35:17.699Z,11.70
2018-11-13T00:37:46.723Z,11.50
2018-11-13T00:40:15.248Z,11.60
2018-11-13T00:42:44.360Z,11.20
2018-11-13T00:45:12.621Z,11.50
2018-11-13T00:47:40.863Z,11.30
2018-11-13T00:50:11.432Z,11.40
2018-11-13T00:52:40.127Z,11.30
2018-11-13T00:55:08.649Z,11.20
2018-11-13T00:57:37.694Z,11.10
2018-11-13T01:00:10.139Z,11.10
2018-11-13T01:02:38.485Z,11.40
2018-11-13T01:05:08.489Z,11.30
2018-11-13T01:07:36.756Z,11.50
2018-11-13T01:10:05.086Z,11.40
2018-11-13T01:12:33.340Z,11.20
2018-11-13T01:15:02.033Z,11.30
2018-11-13T01:17:30.271Z,11.40
2018-11-13T01:19:58.517Z,11.30
2018-11-13T01:22:26.755Z,11.30
2018-11-13T01:24:55.013Z,11.50
2018-11-13T01:27:23.241Z,11.30
2018-11-13T01:29:55.485Z,11.40
2018-11-13T01:32:25.017Z,11.50
2018-11-13T01:34:53.495Z,12.00
2018-11-13T01:37:21.802Z,11.90
2018-11-13T01:39:50.038Z,11.80
2018-11-13T01:42:18.250Z,12.10
2018-11-13T01:44:46.441Z,11.80
2018-11-13T01:47:14.654Z,11.70
2018-11-13T01:49:42.895Z,11.70
2018-11-13T01:52:11.177Z,11.90
2018-11-13T01:54:39.446Z,12.00
2018-11-13T01:57:07.757Z,11.90
2018-11-13T01:59:35.950Z,11.90
2018-11-13T02:02:04.266Z,11.90
2018-11-13T02:04:32.910Z,11.90
2018-11-13T02:07:01.215Z,12.30
2018-11-13T02:09:29.489Z,12.30
2018-11-13T02:11:57.768Z,12.10
2018-11-13T02:14:26.028Z,11.70
2018-11-13T02:16:54.234Z,11.90
2018-11-13T02:19:22.441Z,11.70
2018-11-13T02:21:50.717Z,11.70
2018-11-13T02:24:18.968Z,12.00
2018-11-13T02:26:47.185Z,11.70
2018-11-13T02:29:15.462Z,11.90
2018-11-13T02:31:43.766Z,11.80
2018-11-13T02:34:12.024Z,12.20
2018-11-13T02:36:40.292Z,12.10
2018-11-13T02:39:09.430Z,12.20
2018-11-13T02:41:37.740Z,12.10
2018-11-13T02:44:06.235Z,11.90
2018-11-13T02:46:34.526Z,12.20
2018-11-13T02:49:02.728Z,12.30
2018-11-13T02:51:30.945Z,12.00
2018-11-13T02:53:59.292Z,12.20
2018-11-13T02:56:27.500Z,12.60
2018-11-13T02:58:55.717Z,12.10
2018-11-13T03:01:23.957Z,12.20
2018-11-13T03:03:52.266Z,12.60
2018-11-13T03:06:20.499Z,12.40
2018-11-13T03:08:48.721Z,12.20
2018-11-13T03:11:16.977Z,12.30
2018-11-13T03:13:45.317Z,12.20
2018-11-13T03:16:13.473Z,12.40
2018-11-13T03:18:41.741Z,12.20
2018-11-13T03:21:10.018Z,12.10
2018-11-13T03:23:38.287Z,12.10
2018-11-13T03:26:06.957Z,12.40
2018-11-13T03:28:35.265Z,12.40
2018-11-13T03:31:03.627Z,12.20
2018-11-13T03:33:31.728Z,12.10
2018-11-13T03:35:59.942Z,12.30
2018-11-13T03:38:28.243Z,12.00
2018-11-13T03:40:56.442Z,12.20
2018-11-13T03:43:24.710Z,11.90
2018-11-13T03:45:53.554Z,12.10
2018-11-13T03:48:21.794Z,11.70
2018-11-13T03:50:50.149Z,11.80
2018-11-13T03:53:18.409Z,11.90
2018-11-13T03:55:46.609Z,12.30
2018-11-13T03:58:14.882Z,12.10
2018-11-13T04:00:43.146Z,12.30
2018-11-13T04:03:11.410Z,12.20
2018-11-13T04:05:39.697Z,12.00
2018-11-13T04:08:07.966Z,12.00
2018-11-13T04:10:36.303Z,12.40
2018-11-13T04:13:04.638Z,12.20
2018-11-13T04:15:32.914Z,12.30
2018-11-13T04:18:01.153Z,11.80
2018-11-13T04:20:29.350Z,11.80
2018-11-13T04:22:57.621Z,11.90
2018-11-13T04:25:25.870Z,11.90
2018-11-13T04:27:54.090Z,12.10
2018-11-13T04:30:22.403Z,12.10
2018-11-13T04:32:50.653Z,11.70
2018-11-13T04:35:19.282Z,11.70
2018-11-13T04:37:47.510Z,11.60
2018-11-13T04:40:16.956Z,11.50
2018-11-13T04:42:46.487Z,11.90
2018-11-13T04:45:15.866Z,12.10
2018-11-13T04:47:45.368Z,11.90
2018-11-13T04:50:15.050Z,11.90
2018-11-13T04:52:43.666Z,12.10
2018-11-13T04:55:12.191Z,11.70
2018-11-13T04:57:41.824Z,11.70
2018-11-13T05:00:11.557Z,11.80
2018-11-13T05:02:40.545Z,11.80
2018-11-13T05:05:09.677Z,11.80
2018-11-13T05:07:38.002Z,11.90
2018-11-13T05:10:07.769Z,11.90
2018-11-13T05:12:36.018Z,11.70
2018-11-13T05:15:04.629Z,11.70
2018-11-13T05:17:33.277Z,11.50
2018-11-13T05:20:01.552Z,11.60
2018-11-13T05:22:29.890Z,11.50
2018-11-13T05:24:58.190Z,11.30
2018-11-13T05:27:26.411Z,11.50
2018-11-13T05:29:54.728Z,11.70
2018-11-13T05:32:23.022Z,11.70
2018-11-13T05:34:51.335Z,11.40
2018-11-13T05:37:19.558Z,11.50
2018-11-13T05:39:47.793Z,11.60
2018-11-13T05:42:16.063Z,11.40
2018-11-13T05:44:44.405Z,11.20
2018-11-13T05:47:12.723Z,11.30
2018-11-13T05:49:40.994Z,11.50
2018-11-13T05:52:09.231Z,11.40
2018-11-13T05:54:37.461Z,11.30
2018-11-13T05:57:05.763Z,11.20
2018-11-13T05:59:34.082Z,11.20
2018-11-13T06:02:02.384Z,11.30
2018-11-13T06:04:30.636Z,11.30
2018-11-13T06:06:58.989Z,11.30
2018-11-13T06:09:27.253Z,11.30
2018-11-13T06:11:55.719Z,11.40
2018-11-13T06:14:23.927Z,11.40
2018-11-13T06:16:52.133Z,11.40
2018-11-13T06:19:20.405Z,11.30
2018-11-13T06:21:48.645Z,11.20
2018-11-13T06:24:16.917Z,11.30
2018-11-13T06:26:45.234Z,11.40
2018-11-13T06:29:13.490Z,11.40
2018-11-13T06:31:41.772Z,11.30
2018-11-13T06:34:09.983Z,11.40
2018-11-13T06:36:38.223Z,11.20
2018-11-13T06:39:08.461Z,11.30
2018-11-13T06:41:36.726Z,11.20
2018-11-13T06:44:05.034Z,11.40
2018-11-13T06:46:33.335Z,11.50
2018-11-13T06:49:01.769Z,11.30
2018-11-13T06:51:30.045Z,11.60
2018-11-13T06:54:09.752Z,11.60
2018-11-13T06:56:38.014Z,11.90
2018-11-13T06:59:06.262Z,11.70
2018-11-13T07:01:41.235Z,11.60
2018-11-13T07:04:09.494Z,11.80
2018-11-13T07:06:37.749Z,11.70
2018-11-13T07:09:08.044Z,11.60
2018-11-13T07:11:36.314Z,11.60
2018-11-13T07:14:04.625Z,11.70
2018-11-13T07:16:32.928Z,11.80
2018-11-13T07:19:01.314Z,12.00
2018-11-13T07:21:29.555Z,12.20
2018-11-13T07:23:57.817Z,12.00
2018-11-13T07:26:27.022Z,12.10
2018-11-13T07:28:55.342Z,12.20
2018-11-13T07:31:23.608Z,12.00
2018-11-13T07:33:51.853Z,12.10
2018-11-13T07:36:20.166Z,12.00
2018-11-13T07:38:48.402Z,12.10
2018-11-13T07:41:16.711Z,12.10
2018-11-13T07:43:44.853Z,12.20
2018-11-13T07:46:13.093Z,12.20
2018-11-13T07:48:41.369Z,12.50
2018-11-13T07:51:09.739Z,12.10
2018-11-13T07:53:38.007Z,12.10
2018-11-13T07:56:06.281Z,12.00
2018-11-13T07:58:34.558Z,12.20
2018-11-13T08:01:02.780Z,12.10
2018-11-13T08:03:39.415Z,12.20
2018-11-13T08:06:07.945Z,12.10
2018-11-13T08:08:36.181Z,11.90
2018-11-13T08:11:05.058Z,11.90
2018-11-13T08:13:34.050Z,12.00
2018-11-13T08:16:02.407Z,12.00
2018-11-13T08:18:31.323Z,12.10
2018-11-13T08:20:59.519Z,12.10
2018-11-13T08:23:27.785Z,12.20
2018-11-13T08:25:56.022Z,12.10
2018-11-13T08:28:24.309Z,11.90
2018-11-13T08:30:52.518Z,12.10
2018-11-13T08:33:20.791Z,12.20
2018-11-13T08:35:49.117Z,12.60
2018-11-13T08:38:17.382Z,12.60
2018-11-13T08:40:45.666Z,12.50
2018-11-13T08:43:14.021Z,12.50
2018-11-13T08:45:42.304Z,12.80
2018-11-13T08:48:10.582Z,12.50
2018-11-13T08:50:38.960Z,12.30
2018-11-13T08:53:07.114Z,12.30
2018-11-13T08:55:35.429Z,12.30
2018-11-13T08:58:03.716Z,12.40
2018-11-13T09:00:32.020Z,12.50
2018-11-13T09:03:00.301Z,12.30
2018-11-13T09:05:28.520Z,12.60
2018-11-13T09:07:56.809Z,13.00
2018-11-13T09:10:25.076Z,12.90
2018-11-13T09:12:53.314Z,12.80
2018-11-13T09:15:22.316Z,12.90
2018-11-13T09:17:50.545Z,12.70
2018-11-13T09:20:19.904Z,12.80
2018-11-13T09:22:48.181Z,13.30
2018-11-13T09:25:19.668Z,13.80
2018-11-13T09:27:48.002Z,13.60
2018-11-13T09:30:17.715Z,14.00
2018-11-13T09:32:46.447Z,14.30
2018-11-13T09:35:15.828Z,14.70
2018-11-13T09:37:44.123Z,14.60
2018-11-13T09:40:15.095Z,15.10
2018-11-13T09:42:44.309Z,15.50
2018-11-13T09:45:13.357Z,15.80
2018-11-13T09:47:41.963Z,15.90
2018-11-13T09:50:12.902Z,15.90
2018-11-13T09:52:42.452Z,15.30
2018-11-13T09:55:13.026Z,15.20
2018-11-13T09:57:41.410Z,15.00
2018-11-13T10:00:17.076Z,14.80
2018-11-13T10:02:47.073Z,14.20
2018-11-13T10:05:15.997Z,14.30
2018-11-13T10:07:44.570Z,14.90
2018-11-13T10:10:12.989Z,15.30
2018-11-13T10:12:41.215Z,15.40
2018-11-13T10:15:14.018Z,15.20
2018-11-13T10:17:42.454Z,15.50
2018-11-13T10:20:12.318Z,15.30
2018-11-13T10:22:41.569Z,15.20
2018-11-13T10:25:10.612Z,15.30
2018-11-13T10:27:39.136Z,15.50
2018-11-13T10:30:10.638Z,15.20
2018-11-13T10:32:39.216Z,15.00
2018-11-13T10:35:08.936Z,15.00
2018-11-13T10:37:37.875Z,14.80
2018-11-13T10:40:07.213Z,14.40
2018-11-13T10:42:35.622Z,14.50
2018-11-13T10:45:04.396Z,14.70
2018-11-13T10:47:32.709Z,14.90
2018-11-13T10:50:01.123Z,14.70
2018-11-13T10:52:29.452Z,14.80
2018-11-13T10:54:57.773Z,14.60
2018-11-13T10:57:26.042Z,14.50
2018-11-13T10:59:54.442Z,14.60
2018-11-13T11:03:29.757Z,14.10
2018-11-13T11:05:57.994Z,14.10
2018-11-13T11:08:26.337Z,14.30
2018-11-13T11:10:54.667Z,14.30
2018-11-13T11:13:23.065Z,14.70
2018-11-13T11:15:51.234Z,14.90
2018-11-13T11:18:19.590Z,15.00
2018-11-13T11:20:47.885Z,15.10
2018-11-13T11:23:16.171Z,15.00
2018-11-13T11:25:44.515Z,14.70
2018-11-13T11:28:13.504Z,14.70
2018-11-13T11:30:41.872Z,14.50
2018-11-13T11:33:10.106Z,14.40
2018-11-13T11:35:38.325Z,14.20
2018-11-13T11:38:06.695Z,14.60
2018-11-13T11:40:35.045Z,14.80
2018-11-13T11:43:03.381Z,14.40
2018-11-13T11:45:31.667Z,14.00
2018-11-13T11:47:59.911Z,14.30
2018-11-13T11:50:28.206Z,14.30
2018-11-13T11:52:56.540Z,14.50
2018-11-13T11:55:24.815Z,14.50
2018-11-13T11:57:53.107Z,14.70
2018-11-13T12:00:32.506Z,14.50
2018-11-13T12:03:00.915Z,14.30
2018-11-13T12:05:29.182Z,14.80
2018-11-13T12:07:57.419Z,14.80
2018-11-13T12:10:25.803Z,14.90
2018-11-13T12:12:54.624Z,15.10
2018-11-13T12:15:22.906Z,15.20
2018-11-13T12:17:51.189Z,15.40
2018-11-13T12:20:19.491Z,15.70
2018-11-13T12:22:47.797Z,15.50
2018-11-13T12:25:17.426Z,15.70
2018-11-13T12:27:45.762Z,15.80
2018-11-13T12:30:18.130Z,15.40
2018-11-13T12:32:47.159Z,15.50
2018-11-13T12:35:16.444Z,15.30
2018-11-13T12:37:44.786Z,15.30
2018-11-13T12:40:14.548Z,15.30
2018-11-13T12:42:46.078Z,15.10
2018-11-13T12:45:12.645Z,15.10
2018-11-13T12:47:41.662Z,14.70
2018-11-13T12:50:10.733Z,14.60
2018-11-13T12:52:38.929Z,15.00
2018-11-13T12:55:09.302Z,15.10
2018-11-13T12:57:37.554Z,15.10
2018-11-13T13:00:14.721Z,15.20
2018-11-13T13:02:43.035Z,15.00
2018-11-13T13:05:11.319Z,15.00
2018-11-13T13:07:39.978Z,15.00
2018-11-13T13:10:10.049Z,15.20
2018-11-13T13:12:38.400Z,15.20
2018-11-13T13:15:08.834Z,15.00
2018-11-13T13:17:37.437Z,15.30
2018-11-13T13:20:07.916Z,15.50
2018-11-13T13:22:36.533Z,15.50
2018-11-13T13:25:05.928Z,15.20
2018-11-13T13:27:34.146Z,14.60
2018-11-13T13:30:02.417Z,14.50
2018-11-13T13:32:30.687Z,14.80
2018-11-13T13:34:58.915Z,14.60
2018-11-13T13:37:27.321Z,14.90
2018-11-13T13:39:55.659Z,15.10
2018-11-13T13:42:23.861Z,14.90
2018-11-13T13:44:52.198Z,14.80
2018-11-13T13:47:20.483Z,14.90
2018-11-13T13:49:49.758Z,14.90
2018-11-13T13:52:17.997Z,15.00
2018-11-13T13:54:46.302Z,15.10
2018-11-13T13:57:14.582Z,15.20
2018-11-13T13:59:42.922Z,14.80
2018-11-13T14:02:11.160Z,15.00
2018-11-13T14:04:39.406Z,15.00
2018-11-13T14:07:07.681Z,15.10
2018-11-13T14:09:36.047Z,14.90
2018-11-13T14:12:04.486Z,15.00
2018-11-13T14:14:32.765Z,14.80
2018-11-13T14:17:01.267Z,14.80
2018-11-13T14:19:29.525Z,14.70
2018-11-13T14:21:57.822Z,14.70
2018-11-13T14:24:26.118Z,14.90
2018-11-13T14:26:54.708Z,14.80
2018-11-13T14:29:23.224Z,14.70
2018-11-13T14:31:51.506Z,14.70
2018-11-13T14:34:19.801Z,14.60
2018-11-13T14:36:48.032Z,14.80
2018-11-13T14:39:16.406Z,14.80
2018-11-13T14:41:44.625Z,14.70
2018-11-13T14:44:12.921Z,14.70
2018-11-13T14:46:41.380Z,14.80
2018-11-13T14:49:09.594Z,14.80
2018-11-13T14:51:37.879Z,15.00
2018-11-13T14:54:06.145Z,15.00
2018-11-13T14:56:34.569Z,15.00
2018-11-13T14:59:02.802Z,14.70
2018-11-13T15:01:31.135Z,14.50
2018-11-13T15:03:59.394Z,14.40
2018-11-13T15:06:27.727Z,14.40
2018-11-13T15:08:55.962Z,14.40
2018-11-13T15:11:24.234Z,14.20
2018-11-13T15:13:52.510Z,14.40
2018-11-13T15:16:20.814Z,14.20
2018-11-13T15:18:49.095Z,14.60
2018-11-13T15:21:17.284Z,14.30
2018-11-13T15:23:45.537Z,14.40
2018-11-13T15:26:13.880Z,14.50
2018-11-13T15:28:42.087Z,14.20
2018-11-13T15:31:10.346Z,14.50
2018-11-13T15:33:38.658Z,14.40
2018-11-13T15:36:06.886Z,14.40
2018-11-13T15:38:35.130Z,14.40
2018-11-13T15:41:03.494Z,14.30
2018-11-13T15:43:31.766Z,14.50
2018-11-13T15:45:59.974Z,14.50
2018-11-13T15:48:28.237Z,14.50
2018-11-13T15:50:56.528Z,14.80
2018-11-13T15:53:24.810Z,14.90
2018-11-13T15:55:53.788Z,14.70
2018-11-13T15:58:22.109Z,14.30
2018-11-13T16:00:50.465Z,14.60
2018-11-13T16:03:22.465Z,14.50
2018-11-13T16:05:55.065Z,14.30
2018-11-13T16:08:23.359Z,14.00
2018-11-13T16:10:51.658Z,14.20
2018-11-13T16:13:19.974Z,14.20
2018-11-13T16:15:48.295Z,14.10
2018-11-13T16:18:18.123Z,14.50
2018-11-13T16:20:46.336Z,14.60
2018-11-13T16:23:14.597Z,14.30
2018-11-13T16:25:42.805Z,14.40
2018-11-13T16:28:11.074Z,14.50
2018-11-13T16:30:39.945Z,14.50
2018-11-13T16:33:08.358Z,14.50
2018-11-13T16:35:36.654Z,14.50
2018-11-13T16:38:06.508Z,14.60
2018-11-13T16:40:34.854Z,14.90
2018-11-13T16:43:03.123Z,14.80
2018-11-13T16:45:32.499Z,15.10
2018-11-13T16:48:01.398Z,15.00
2018-11-13T16:50:32.009Z,15.10
2018-11-13T16:53:00.393Z,14.60
2018-11-13T16:55:34.114Z,14.00
2018-11-13T16:58:03.606Z,13.90
2018-11-13T17:00:31.916Z,14.10
2018-11-13T17:03:00.083Z,14.20
2018-11-13T17:05:29.060Z,14.00
2018-11-13T17:07:57.143Z,14.60
2018-11-13T17:10:26.625Z,14.60
2018-11-13T17:13:02.317Z,14.70
2018-11-13T17:15:31.514Z,14.80
2018-11-13T17:18:01.084Z,15.00
2018-11-13T17:20:29.414Z,15.00
2018-11-13T17:22:57.632Z,14.90
2018-11-13T17:25:27.493Z,14.80
2018-11-13T17:27:56.093Z,14.70
2018-11-13T17:30:31.249Z,14.20
2018-11-13T17:33:00.732Z,14.40
2018-11-13T17:35:29.626Z,14.60
2018-11-13T17:37:58.366Z,14.20
2018-11-13T17:40:30.758Z,14.40
2018-11-13T17:43:00.539Z,14.30
2018-11-13T17:45:32.073Z,14.30
2018-11-13T17:48:00.534Z,14.30
2018-11-13T17:50:34.029Z,14.40
2018-11-13T17:53:02.654Z,14.40
2018-11-13T17:55:30.933Z,14.40
2018-11-13T17:58:01.362Z,14.20
2018-11-13T18:00:31.506Z,14.30
2018-11-13T18:03:00.946Z,14.10
2018-11-13T18:05:29.645Z,14.00
2018-11-13T18:07:59.055Z,14.10
2018-11-13T18:10:28.214Z,14.20
2018-11-13T18:12:56.501Z,14.30
2018-11-13T18:15:26.070Z,13.90
2018-11-13T18:17:54.300Z,14.00
2018-11-13T18:20:24.799Z,13.90
2018-11-13T18:22:53.078Z,13.70
2018-11-13T18:25:21.412Z,13.40
2018-11-13T18:27:51.847Z,13.60
2018-11-13T18:30:23.535Z,13.70
2018-11-13T18:32:52.045Z,13.30
2018-11-13T18:35:23.673Z,13.10
2018-11-13T18:37:52.729Z,12.90
2018-11-13T18:40:21.662Z,12.90
2018-11-13T18:42:50.661Z,13.00
2018-11-13T18:45:22.358Z,13.00
2018-11-13T18:47:50.625Z,13.20
2018-11-13T18:50:21.418Z,13.30
2018-11-13T18:52:49.590Z,13.00
2018-11-13T18:55:18.157Z,13.00
2018-11-13T18:57:46.609Z,13.00
2018-11-13T19:00:18.037Z,13.20
2018-11-13T19:02:46.308Z,13.20
2018-11-13T19:05:15.432Z,13.10
2018-11-13T19:07:43.919Z,12.90
2018-11-13T19:10:17.630Z,12.90
2018-11-13T19:12:46.469Z,13.10
2018-11-13T19:15:15.561Z,12.90
2018-11-13T19:17:43.839Z,13.00
2018-11-13T19:20:15.628Z,13.10
2018-11-13T19:22:43.882Z,13.00
2018-11-13T19:25:18.857Z,13.10
2018-11-13T19:27:47.759Z,12.40
2018-11-13T19:30:16.875Z,13.10
2018-11-13T19:32:45.093Z,13.10
2018-11-13T19:35:13.940Z,12.90
2018-11-13T19:37:42.133Z,13.00
2018-11-13T19:40:27.470Z,12.90
2018-11-13T19:42:56.582Z,12.60
2018-11-13T19:45:24.893Z,12.90
2018-11-13T19:47:53.263Z,13.00
2018-11-13T19:50:23.092Z,13.10
2018-11-13T19:52:51.349Z,13.00
2018-11-13T19:55:20.557Z,13.00
2018-11-13T19:57:49.125Z,13.10
2018-11-13T20:00:18.707Z,13.20
2018-11-13T20:02:47.634Z,12.90
2018-11-13T20:05:15.914Z,12.80
2018-11-13T20:07:44.191Z,13.00
2018-11-13T20:10:19.406Z,13.00
2018-11-13T20:12:48.705Z,13.10
2018-11-13T20:15:17.175Z,13.00
2018-11-13T20:17:45.463Z,12.60
2018-11-13T20:20:17.118Z,12.80
2018-11-13T20:22:45.869Z,12.60
2018-11-13T20:25:15.542Z,12.70
2018-11-13T20:27:43.829Z,13.00
2018-11-13T20:30:16.354Z,13.00
2018-11-13T20:32:44.572Z,13.10
2018-11-13T20:35:13.218Z,13.20
2018-11-13T20:37:42.565Z,12.80
2018-11-13T20:40:13.062Z,12.70
2018-11-13T20:42:41.818Z,12.60
2018-11-13T20:45:10.686Z,12.70
2018-11-13T20:47:39.301Z,12.90
2018-11-13T20:50:09.330Z,12.80
2018-11-13T20:52:37.781Z,12.80
2018-11-13T20:55:06.661Z,12.60
2018-11-13T20:57:34.998Z,12.70
2018-11-13T21:00:03.350Z,12.70
2018-11-13T21:02:31.604Z,12.90
2018-11-13T21:04:59.827Z,12.70
2018-11-13T21:07:28.048Z,12.60
2018-11-13T21:09:56.273Z,12.50
2018-11-13T21:12:25.243Z,12.40
2018-11-13T21:14:53.552Z,12.40
2018-11-13T21:17:22.014Z,12.50
2018-11-13T21:19:50.386Z,12.40
2018-11-13T21:22:18.426Z,12.40
2018-11-13T21:24:46.659Z,12.20
2018-11-13T21:27:14.911Z,12.30
2018-11-13T21:29:43.221Z,12.40
2018-11-13T21:32:11.550Z,12.40
2018-11-13T21:34:39.822Z,12.20
2018-11-13T21:37:08.850Z,12.30
2018-11-13T21:39:37.032Z,12.20
2018-11-13T21:42:12.382Z,12.40
2018-11-13T21:44:40.685Z,12.20
2018-11-13T21:47:08.937Z,11.80
2018-11-13T21:49:37.262Z,11.80
2018-11-13T21:52:05.569Z,12.20
2018-11-13T21:54:33.790Z,12.10
2018-11-13T21:57:02.093Z,12.00
2018-11-13T21:59:30.295Z,12.10
2018-11-13T22:01:58.571Z,11.80
2018-11-13T22:04:26.907Z,11.90
2018-11-13T22:06:55.117Z,12.00
2018-11-13T22:09:23.345Z,12.00
2018-11-13T22:11:51.541Z,12.10
2018-11-13T22:14:19.944Z,12.10
2018-11-13T22:16:48.268Z,12.00
2018-11-13T22:21:44.542Z,11.90
2018-11-13T22:24:12.893Z,12.10
2018-11-13T22:26:41.126Z,12.30
2018-11-13T22:29:09.453Z,12.30
2018-11-13T22:31:37.569Z,12.40
2018-11-13T22:34:06.300Z,12.10
2018-11-13T22:36:34.808Z,12.30
2018-11-13T22:39:02.916Z,12.50
2018-11-13T22:41:31.182Z,12.40
2018-11-13T22:43:59.457Z,11.90
2018-11-13T22:46:27.663Z,12.10
2018-11-13T22:48:55.944Z,12.30
2018-11-13T22:51:24.242Z,12.40
2018-11-13T22:53:52.534Z,12.20
2018-11-13T22:56:20.813Z,12.20
2018-11-13T22:58:49.009Z,12.60
2018-11-13T23:01:17.379Z,12.30
2018-11-13T23:03:45.670Z,12.10
2018-11-13T23:06:13.918Z,12.00
2018-11-13T23:08:42.118Z,12.30
2018-11-13T23:11:12.830Z,12.30
2018-11-13T23:13:41.210Z,11.80
2018-11-13T23:16:09.571Z,12.10
2018-11-13T23:18:37.779Z,11.90
2018-11-13T23:21:06.090Z,12.00
2018-11-13T23:23:34.354Z,12.00
2018-11-13T23:26:02.608Z,11.90
2018-11-13T23:28:31.126Z,12.10
2018-11-13T23:30:59.367Z,12.10
2018-11-13T23:33:27.613Z,12.10
2018-11-13T23:35:55.908Z,11.90
2018-11-13T23:38:24.216Z,12.10
2018-11-13T23:40:52.666Z,12.40
2018-11-13T23:43:20.823Z,12.50
2018-11-13T23:45:49.199Z,12.30
2018-11-13T23:48:17.402Z,12.20
2018-11-13T23:50:45.744Z,12.10
2018-11-13T23:53:13.977Z,12.00
2018-11-13T23:55:42.206Z,12.00
2018-11-13T23:58:10.463Z,11.70
